Time;durP1;ratioP1;P1;durP2;ratioP2;P2;SDS_P1;SDS_P2;PMS_P1;PMS_P2;Temp;Humidity;BMP_temperature;BMP_pressure;BME280_temperature;BME280_humidity;BME280_pressure;Samples;Min_cycle;Max_cycle;Signal;HPM_P1;HPM_P2
2022/09/28 11:25:16;;;;;;;2.83;1.10;;;;;;;;;;5136029;27;20286;-78
2022/09/28 11:27:56;;;;;;;2.90;1.00;;;;;;;;;;5120542;28;20209;-78
2022/09/28 11:30:25;;;;;;;1.47;1.00;;;;;;;;;;5108503;28;20205;-76
2022/09/28 11:32:55;;;;;;;1.30;0.90;;;;;;;;;;5110283;28;20206;-77
2022/09/28 11:35:25;;;;;;;1.10;1.00;;;;;;;;;;5127574;28;20655;-77
2022/09/28 11:38:02;;;;;;;2.13;1.20;;;;;;;;;;5123918;27;20218;-77
2022/09/28 11:40:41;;;;;;;2.40;1.27;;;;;;;;;;5109563;28;20293;-77
2022/09/28 11:43:14;;;;;;;1.30;0.90;;;;;;;;;;5110802;28;20685;-76
2022/09/28 11:45:53;;;;;;;2.27;1.30;;;;;;;;;;5110274;28;20202;-77
2022/09/28 11:48:24;;;;;;;0.90;0.83;;;;;;;;;;5109191;28;20210;-76
2022/09/28 11:50:54;;;;;;;1.40;1.00;;;;;;;;;;5120520;28;20229;-77
2022/09/28 11:53:26;;;;;;;1.93;1.07;;;;;;;;;;5129258;28;20288;-77
2022/09/28 11:55:58;;;;;;;2.93;1.00;;;;;;;;;;5129265;28;20297;-76
2022/09/28 11:58:31;;;;;;;3.77;1.00;;;;;;;;;;5115122;28;20246;-77
2022/09/28 12:01:02;;;;;;;4.00;2.93;;;;;;;;;;5115656;28;20205;-77
2022/09/28 12:03:35;;;;;;;2.40;1.13;;;;;;;;;;5128207;28;20241;-76
2022/09/28 12:06:06;;;;;;;1.30;1.20;;;;;;;;;;5129411;28;20215;-77
2022/09/28 12:08:36;;;;;;;3.17;1.97;;;;;;;;;;5129237;28;20264;-77
2022/09/28 12:11:09;;;;;;;2.43;1.30;;;;;;;;;;5108557;28;20244;-77
2022/09/28 12:13:40;;;;;;;2.70;1.13;;;;;;;;;;5109186;28;20212;-78
2022/09/28 12:16:10;;;;;;;1.97;1.40;;;;;;;;;;5109224;28;20597;-78
2022/09/28 12:19:01;;;;;;;1.73;1.20;;;;;;;;;;5112448;28;20235;-78
2022/09/28 12:21:38;;;;;;;4.57;3.47;;;;;;;;;;5128704;28;20196;-79
2022/09/28 12:24:13;;;;;;;4.33;1.87;;;;;;;;;;5127260;28;20231;-78
2022/09/28 12:26:44;;;;;;;4.57;1.50;;;;;;;;;;5129238;28;20229;-78
2022/09/28 12:29:14;;;;;;;2.40;1.37;;;;;;;;;;5119842;28;20213;-77
2022/09/28 12:31:51;;;;;;;2.50;1.57;;;;;;;;;;5108263;28;20221;-77
2022/09/28 12:34:19;;;;;;;3.23;1.50;;;;;;;;;;5104341;28;20191;-77
2022/09/28 12:36:51;;;;;;;3.33;1.50;;;;;;;;;;5094695;28;20217;-76
2022/09/28 12:39:30;;;;;;;2.67;1.40;;;;;;;;;;5094166;28;20218;-78
2022/09/28 12:42:28;;;;;;;1.63;1.50;;;;;;;;;;5094676;28;20215;-78
2022/09/28 12:45:04;;;;;;;3.10;1.60;;;;;;;;;;5094497;28;20219;-78
2022/09/28 12:47:50;;;;;;;2.07;1.40;;;;;;;;;;5094423;28;20191;-76
2022/09/28 12:50:22;;;;;;;3.13;1.60;;;;;;;;;;5093973;28;20231;-77
2022/09/28 12:53:25;;;;;;;2.40;1.80;;;;;;;;;;5094280;28;20237;-77
2022/09/28 12:55:55;;;;;;;3.03;1.40;;;;;;;;;;5094328;28;20228;-78
2022/09/28 12:58:32;;;;;;;4.00;1.43;;;;;;;;;;5094123;28;20644;-78
2022/09/28 13:01:04;;;;;;;3.10;1.70;;;;;;;;;;5093978;28;20218;-77
2022/09/28 13:03:44;;;;;;;2.83;1.50;;;;;;;;;;5093760;28;20242;-76
2022/09/28 13:06:29;;;;;;;3.30;1.90;;;;;;;;;;5094589;28;20252;-78
2022/09/28 13:09:07;;;;;;;5.30;1.83;;;;;;;;;;5092921;28;20202;-77
2022/09/28 13:11:41;;;;;;;4.47;2.80;;;;;;;;;;5094183;28;20214;-77
2022/09/28 13:14:28;;;;;;;1.50;1.37;;;;;;;;;;5093712;28;20190;-77
2022/09/28 13:17:01;;;;;;;4.50;1.60;;;;;;;;;;5093459;28;20723;-78
2022/09/28 13:19:35;;;;;;;2.50;1.57;;;;;;;;;;5095286;28;20676;-78
2022/09/28 13:22:10;;;;;;;1.83;1.40;;;;;;;;;;5112145;28;20247;-77
2022/09/28 13:24:43;;;;;;;4.53;2.93;;;;;;;;;;5109142;28;20236;-78
2022/09/28 13:27:14;;;;;;;5.07;3.43;;;;;;;;;;5108667;28;20203;-78
2022/09/28 13:29:44;;;;;;;2.80;1.70;;;;;;;;;;5093073;28;20217;-78
2022/09/28 13:32:13;;;;;;;2.70;1.60;;;;;;;;;;5093169;28;20213;-78
2022/09/28 13:34:42;;;;;;;5.17;2.87;;;;;;;;;;5093106;28;20222;-78
2022/09/28 13:37:20;;;;;;;4.90;3.37;;;;;;;;;;5092978;28;20214;-76
2022/09/28 13:39:51;;;;;;;11.03;6.53;;;;;;;;;;5093221;28;20203;-76
2022/09/28 13:42:24;;;;;;;45.00;28.87;;;;;;;;;;5095369;28;20238;-78
2022/09/28 13:45:00;;;;;;;15.70;9.33;;;;;;;;;;5098661;28;20227;-76
2022/09/28 13:47:52;;;;;;;15.40;9.10;;;;;;;;;;5095828;28;20202;-76
2022/09/28 13:50:27;;;;;;;46.20;23.00;;;;;;;;;;5099030;28;20214;-78
2022/09/28 13:53:02;;;;;;;37.13;21.00;;;;;;;;;;5105130;28;20205;-77
2022/09/28 13:55:34;;;;;;;28.37;15.13;;;;;;;;;;5108445;28;20200;-78
2022/09/28 13:58:04;;;;;;;106.00;54.30;;;;;;;;;;5092624;28;20207;-79
2022/09/28 14:00:36;;;;;;;43.37;23.80;;;;;;;;;;5092450;28;20612;-79
2022/09/28 14:03:13;;;;;;;33.13;19.07;;;;;;;;;;5105657;28;20206;-78
2022/09/28 14:05:46;;;;;;;3.23;2.07;;;;;;;;;;5107973;28;20253;-75
2022/09/28 14:08:33;;;;;;;3.97;2.63;;;;;;;;;;5112358;28;20194;-80
2022/09/28 14:11:23;;;;;;;3.73;2.40;;;;;;;;;;5112856;28;20209;-77
2022/09/28 14:13:59;;;;;;;4.30;2.10;;;;;;;;;;5110805;28;20237;-79
2022/09/28 14:16:31;;;;;;;5.10;2.03;;;;;;;;;;5112803;28;20229;-77
2022/09/28 14:19:01;;;;;;;4.37;2.17;;;;;;;;;;5106600;28;20202;-77
2022/09/28 14:21:48;;;;;;;2.80;1.93;;;;;;;;;;5108784;28;20233;-78
2022/09/28 14:24:22;;;;;;;2.63;1.80;;;;;;;;;;5112626;28;20229;-77
2022/09/28 14:27:09;;;;;;;3.03;1.67;;;;;;;;;;5111212;28;20202;-77
2022/09/28 14:29:38;;;;;;;4.20;1.80;;;;;;;;;;5112490;28;20544;-78
2022/09/28 14:32:22;;;;;;;4.43;1.97;;;;;;;;;;5113859;28;20206;-78
2022/09/28 14:34:57;;;;;;;2.53;1.90;;;;;;;;;;5118262;28;20202;-77
2022/09/28 14:43:25;;;;;;;3.13;1.70;;;;;;;;;;5113947;28;20191;-77
2022/09/28 14:46:09;;;;;;;2.37;1.57;;;;;;;;;;5112940;28;20234;-78
2022/09/28 14:48:46;;;;;;;4.03;1.90;;;;;;;;;;5103015;28;20232;-78
2022/09/28 14:51:34;;;;;;;3.97;1.73;;;;;;;;;;5112939;28;20625;-79
2022/09/28 14:54:05;;;;;;;4.33;1.70;;;;;;;;;;5062748;28;20223;-78
2022/09/28 14:56:34;;;;;;;1.67;1.57;;;;;;;;;;5108901;28;20238;-77
2022/09/28 14:59:03;;;;;;;2.83;1.60;;;;;;;;;;5104615;28;20635;-77
2022/09/28 15:01:31;;;;;;;2.60;1.73;;;;;;;;;;5103633;28;20206;-77
2022/09/28 15:04:00;;;;;;;2.97;1.60;;;;;;;;;;5103777;28;20213;-77
2022/09/28 15:06:44;;;;;;;3.57;1.80;;;;;;;;;;5100093;28;20227;-78
2022/09/28 15:09:28;;;;;;;2.37;1.67;;;;;;;;;;5102588;28;20655;-78
2022/09/28 15:12:01;;;;;;;4.03;1.90;;;;;;;;;;5103550;28;20210;-78
2022/09/28 15:14:30;;;;;;;3.20;1.80;;;;;;;;;;5109129;28;20699;-79
2022/09/28 15:17:02;;;;;;;3.77;1.90;;;;;;;;;;5113006;28;20216;-80
2022/09/28 15:19:33;;;;;;;3.20;2.00;;;;;;;;;;5107897;28;20205;-80
2022/09/28 15:22:02;;;;;;;5.63;1.83;;;;;;;;;;5120585;28;20199;-78
2022/09/28 15:24:31;;;;;;;4.83;1.80;;;;;;;;;;5100180;28;20305;-79
2022/09/28 15:27:03;;;;;;;2.70;2.00;;;;;;;;;;5092778;28;20688;-77
2022/09/28 15:29:32;;;;;;;3.80;2.10;;;;;;;;;;5106796;28;20201;-78
2022/09/28 15:32:01;;;;;;;2.60;2.00;;;;;;;;;;5104077;28;20223;-79
2022/09/28 15:37:18;;;;;;;3.80;2.30;;;;;;;;;;5089693;28;20230;-79
2022/09/28 15:39:48;;;;;;;3.90;2.30;;;;;;;;;;5091880;28;20203;-80
2022/09/28 15:42:18;;;;;;;3.27;2.07;;;;;;;;;;5090889;28;20211;-78
2022/09/28 15:45:12;;;;;;;2.73;2.00;;;;;;;;;;5092319;28;20775;-78
2022/09/28 15:47:40;;;;;;;7.03;2.50;;;;;;;;;;5094561;28;20202;-79
2022/09/28 15:50:20;;;;;;;5.43;2.70;;;;;;;;;;5096918;28;20222;-78
2022/09/28 15:52:54;;;;;;;5.23;2.90;;;;;;;;;;5106167;28;20209;-79
2022/09/28 15:55:25;;;;;;;4.87;2.63;;;;;;;;;;5097830;28;20194;-78
2022/09/28 15:58:07;;;;;;;4.33;2.50;;;;;;;;;;5092559;28;20572;-79
2022/09/28 16:00:39;;;;;;;4.37;2.40;;;;;;;;;;5091574;28;20271;-79
2022/09/28 16:03:21;;;;;;;5.37;2.63;;;;;;;;;;5091436;28;20211;-78
2022/09/28 16:05:51;;;;;;;3.30;2.30;;;;;;;;;;5103791;28;20578;-78
2022/09/28 16:08:24;;;;;;;4.57;2.70;;;;;;;;;;5108685;28;20809;-78
2022/09/28 16:10:55;;;;;;;4.77;3.00;;;;;;;;;;5114397;28;20210;-78
2022/09/28 16:13:25;;;;;;;5.37;3.80;;;;;;;;;;5102848;28;20656;-78
2022/09/28 16:15:58;;;;;;;7.17;6.13;;;;;;;;;;5094973;28;20194;-78
2022/09/28 16:18:27;;;;;;;9.33;3.60;;;;;;;;;;5095311;28;20206;-78
2022/09/28 16:20:57;;;;;;;5.97;3.40;;;;;;;;;;5113164;28;20202;-78
2022/09/28 16:23:28;;;;;;;5.53;4.60;;;;;;;;;;5106857;28;20217;-78
2022/09/28 16:25:58;;;;;;;9.20;7.20;;;;;;;;;;5094646;28;20241;-77
2022/09/28 16:28:50;;;;;;;8.23;5.83;;;;;;;;;;5102217;28;20210;-78
2022/09/28 16:31:32;;;;;;;6.57;4.37;;;;;;;;;;5114564;28;20218;-79
2022/09/28 16:34:08;;;;;;;7.07;4.17;;;;;;;;;;5114167;28;20206;-77
2022/09/28 16:36:46;;;;;;;7.43;4.80;;;;;;;;;;5111558;28;20234;-77
2022/09/28 16:39:16;;;;;;;6.93;3.93;;;;;;;;;;5110619;28;20205;-79
2022/09/28 16:41:46;;;;;;;7.40;3.60;;;;;;;;;;5094934;28;20203;-79
2022/09/28 16:44:19;;;;;;;6.23;4.07;;;;;;;;;;5096130;28;20206;-80
2022/09/28 16:46:48;;;;;;;6.47;4.27;;;;;;;;;;5095850;28;20206;-79
2022/09/28 16:49:18;;;;;;;7.07;4.87;;;;;;;;;;5094498;28;20210;-78
2022/09/28 16:51:47;;;;;;;6.53;4.70;;;;;;;;;;5109362;28;20214;-78
2022/09/28 16:57:05;;;;;;;7.73;4.07;;;;;;;;;;5094649;28;20203;-78
2022/09/28 16:59:38;;;;;;;5.03;4.03;;;;;;;;;;5096685;28;20218;-78
2022/09/28 17:02:15;;;;;;;6.97;4.87;;;;;;;;;;5097925;28;20298;-79
2022/09/28 17:05:05;;;;;;;8.10;4.73;;;;;;;;;;5105772;28;20616;-78
2022/09/28 17:07:33;;;;;;;7.90;5.07;;;;;;;;;;5116668;28;20248;-79
2022/09/28 17:10:02;;;;;;;9.43;5.40;;;;;;;;;;5094223;28;20211;-79
2022/09/28 17:12:31;;;;;;;7.00;5.40;;;;;;;;;;5094736;28;20203;-79
2022/09/28 17:15:01;;;;;;;7.83;5.80;;;;;;;;;;5094160;28;20218;-79
2022/09/28 17:17:30;;;;;;;6.93;4.93;;;;;;;;;;5094111;28;20199;-78
2022/09/28 17:19:58;;;;;;;10.03;5.37;;;;;;;;;;5097091;28;20203;-78
2022/09/28 17:22:26;;;;;;;14.60;10.37;;;;;;;;;;5101257;28;20202;-80
2022/09/28 17:24:55;;;;;;;13.57;11.70;;;;;;;;;;5103620;28;20676;-78
2022/09/28 17:27:23;;;;;;;14.90;12.90;;;;;;;;;;5102333;28;20228;-78
2022/09/28 17:29:52;;;;;;;16.53;14.60;;;;;;;;;;5102550;28;20210;-78
2022/09/28 17:32:21;;;;;;;15.40;13.23;;;;;;;;;;5101237;28;20207;-76
2022/09/28 17:34:50;;;;;;;11.60;9.63;;;;;;;;;;5104378;28;20205;-79
2022/09/28 17:37:39;;;;;;;12.27;6.73;;;;;;;;;;5098638;28;20206;-78
2022/09/28 17:40:17;;;;;;;20.83;16.93;;;;;;;;;;5100528;28;20598;-77
2022/09/28 17:42:46;;;;;;;12.63;11.33;;;;;;;;;;5094172;28;20354;-79
2022/09/28 17:45:15;;;;;;;7.70;5.07;;;;;;;;;;5094574;28;20203;-77
2022/09/28 17:47:45;;;;;;;7.73;4.40;;;;;;;;;;5113653;28;20218;-78
2022/09/28 17:50:18;;;;;;;5.97;4.30;;;;;;;;;;5113267;28;20202;-79
2022/09/28 17:52:47;;;;;;;5.70;4.13;;;;;;;;;;5097018;28;20598;-78
2022/09/28 17:55:16;;;;;;;7.77;4.10;;;;;;;;;;5099611;28;20851;-81
2022/09/28 17:57:47;;;;;;;6.53;3.83;;;;;;;;;;5093482;28;20210;-81
2022/09/28 18:00:16;;;;;;;8.50;4.80;;;;;;;;;;5099021;28;20206;-80
2022/09/28 18:02:46;;;;;;;7.97;4.73;;;;;;;;;;5110360;28;20254;-81
2022/09/28 18:05:15;;;;;;;6.57;4.10;;;;;;;;;;5097198;28;20223;-80
2022/09/28 18:07:44;;;;;;;5.97;3.63;;;;;;;;;;5114175;28;20234;-80
2022/09/28 18:10:16;;;;;;;4.33;3.80;;;;;;;;;;5113228;28;20229;-81
2022/09/28 18:12:44;;;;;;;7.80;4.00;;;;;;;;;;5113059;28;20596;-82
2022/09/28 18:15:13;;;;;;;6.37;4.50;;;;;;;;;;5113761;28;20241;-80
2022/09/28 18:17:41;;;;;;;7.47;5.50;;;;;;;;;;5112104;28;20233;-81
2022/09/28 18:20:12;;;;;;;8.13;5.30;;;;;;;;;;5106969;28;20291;-81
2022/09/28 18:22:43;;;;;;;7.33;5.20;;;;;;;;;;5101800;28;20759;-81
2022/09/28 18:25:12;;;;;;;6.20;4.40;;;;;;;;;;5113334;28;20205;-80
2022/09/28 18:27:40;;;;;;;7.10;4.37;;;;;;;;;;5112780;28;20682;-81
2022/09/28 18:30:09;;;;;;;7.07;4.50;;;;;;;;;;5106608;28;20203;-81
2022/09/28 18:32:37;;;;;;;6.90;4.47;;;;;;;;;;5103664;28;20683;-80
2022/09/28 18:35:07;;;;;;;7.50;4.57;;;;;;;;;;5111554;28;20234;-80
2022/09/28 18:37:38;;;;;;;7.27;4.50;;;;;;;;;;5112738;28;20236;-80
2022/09/28 18:40:07;;;;;;;6.73;4.37;;;;;;;;;;5097745;28;20199;-81
2022/09/28 18:42:36;;;;;;;6.53;4.27;;;;;;;;;;5112659;28;20660;-80
2022/09/28 18:45:05;;;;;;;6.40;3.40;;;;;;;;;;5111762;28;20214;-81
2022/09/28 18:47:33;;;;;;;5.03;3.40;;;;;;;;;;5105801;28;20241;-82
2022/09/28 18:50:02;;;;;;;6.00;3.40;;;;;;;;;;5100850;28;20564;-82
2022/09/28 18:52:30;;;;;;;9.03;3.10;;;;;;;;;;5112444;28;20198;-81
2022/09/28 18:55:00;;;;;;;7.90;3.63;;;;;;;;;;5104546;28;20207;-78
2022/09/28 18:57:30;;;;;;;5.03;3.03;;;;;;;;;;5111703;28;20206;-84
2022/09/28 18:59:58;;;;;;;3.77;3.10;;;;;;;;;;5109451;28;20206;-80
2022/09/28 19:02:27;;;;;;;3.80;2.60;;;;;;;;;;5112178;28;20221;-82
2022/09/28 19:04:55;;;;;;;3.73;2.37;;;;;;;;;;5111132;28;20210;-83
2022/09/28 19:07:24;;;;;;;3.33;2.50;;;;;;;;;;5111181;28;20218;-81
2022/09/28 19:09:52;;;;;;;4.77;3.17;;;;;;;;;;5111638;28;20206;-81
2022/09/28 19:12:22;;;;;;;4.33;2.60;;;;;;;;;;5111909;28;20251;-83
2022/09/28 19:14:51;;;;;;;3.97;2.53;;;;;;;;;;5098666;28;20221;-81
2022/09/28 19:17:21;;;;;;;3.50;2.67;;;;;;;;;;5112098;28;20248;-83
2022/09/28 19:19:50;;;;;;;4.67;2.63;;;;;;;;;;5097253;28;20206;-82
2022/09/28 19:22:18;;;;;;;3.33;2.50;;;;;;;;;;5108930;28;20564;-79
2022/09/28 19:24:47;;;;;;;4.87;2.80;;;;;;;;;;5111404;28;20667;-83
2022/09/28 19:27:18;;;;;;;4.40;2.50;;;;;;;;;;5109681;28;20310;-82
2022/09/28 19:29:47;;;;;;;4.93;2.30;;;;;;;;;;5105205;28;20214;-81
2022/09/28 19:32:17;;;;;;;4.57;2.60;;;;;;;;;;5106589;28;20242;-81
2022/09/28 19:34:45;;;;;;;3.50;2.40;;;;;;;;;;5103246;28;20224;-81
2022/09/28 19:37:16;;;;;;;3.47;2.30;;;;;;;;;;5101275;28;20703;-80
2022/09/28 19:39:45;;;;;;;4.53;2.83;;;;;;;;;;5111354;28;20669;-79
2022/09/28 19:42:13;;;;;;;5.30;2.97;;;;;;;;;;5112613;28;20206;-81
2022/09/28 19:44:42;;;;;;;4.53;2.87;;;;;;;;;;5113301;28;20206;-79
2022/09/28 19:47:12;;;;;;;6.20;3.40;;;;;;;;;;5117228;28;20228;-82
2022/09/28 19:49:41;;;;;;;4.20;3.10;;;;;;;;;;5116654;28;20620;-80
2022/09/28 19:52:14;;;;;;;6.77;3.13;;;;;;;;;;5117388;28;20571;-82
2022/09/28 19:54:44;;;;;;;4.37;3.00;;;;;;;;;;5115826;28;20198;-83
2022/09/28 19:57:14;;;;;;;4.87;3.27;;;;;;;;;;5116420;28;20206;-79
2022/09/28 19:59:44;;;;;;;3.90;3.03;;;;;;;;;;5116258;28;20213;-80
2022/09/28 20:02:19;;;;;;;4.87;3.10;;;;;;;;;;5110937;28;20508;-79
2022/09/28 20:04:47;;;;;;;4.87;3.73;;;;;;;;;;5116333;27;20940;-80
2022/09/28 20:07:16;;;;;;;5.00;3.70;;;;;;;;;;5107595;28;20832;-80
2022/09/28 20:09:48;;;;;;;3.83;3.30;;;;;;;;;;5103055;28;20583;-79
2022/09/28 20:12:16;;;;;;;5.97;2.97;;;;;;;;;;5104627;28;20647;-81
2022/09/28 20:14:45;;;;;;;5.80;3.10;;;;;;;;;;5102216;28;20272;-79
2022/09/28 20:17:13;;;;;;;5.47;3.17;;;;;;;;;;5113778;28;20208;-80
2022/09/28 20:19:43;;;;;;;5.50;3.17;;;;;;;;;;5107359;28;20226;-80
2022/09/28 20:22:15;;;;;;;5.47;3.47;;;;;;;;;;5112133;28;20289;-80
2022/09/28 20:24:43;;;;;;;5.63;3.30;;;;;;;;;;5098557;28;20207;-82
2022/09/28 20:27:12;;;;;;;5.57;3.20;;;;;;;;;;5095423;28;20211;-82
2022/09/28 20:29:41;;;;;;;5.53;3.20;;;;;;;;;;5100113;28;20233;-80
2022/09/28 20:32:11;;;;;;;6.20;3.10;;;;;;;;;;5108316;28;20206;-83
2022/09/28 20:34:40;;;;;;;4.47;3.07;;;;;;;;;;5101521;28;20203;-82
2022/09/28 20:37:12;;;;;;;6.30;3.33;;;;;;;;;;5108433;28;20666;-82
2022/09/28 20:39:41;;;;;;;3.83;3.00;;;;;;;;;;5097075;28;20199;-81
2022/09/28 20:42:14;;;;;;;4.90;3.10;;;;;;;;;;5115737;27;20222;-81
2022/09/28 20:44:43;;;;;;;4.10;3.17;;;;;;;;;;5115568;28;20210;-81
2022/09/28 20:47:12;;;;;;;7.70;4.83;;;;;;;;;;5107080;28;20210;-81
2022/09/28 20:49:41;;;;;;;7.90;4.63;;;;;;;;;;5101219;28;20246;-80
2022/09/28 20:52:11;;;;;;;6.10;3.43;;;;;;;;;;5095115;28;20778;-84
2022/09/28 20:54:39;;;;;;;4.97;3.50;;;;;;;;;;5094760;28;20211;-81
2022/09/28 20:57:17;;;;;;;4.67;2.63;;;;;;;;;;5094567;28;20205;-82
2022/09/28 20:59:45;;;;;;;7.10;3.03;;;;;;;;;;5098509;28;20309;-84
2022/09/28 21:02:21;;;;;;;4.20;2.80;;;;;;;;;;5097974;28;20264;-85
2022/09/28 21:04:50;;;;;;;3.50;2.60;;;;;;;;;;5116904;28;20222;-83
2022/09/28 21:07:21;;;;;;;4.77;2.73;;;;;;;;;;5099253;28;20241;-81
2022/09/28 21:09:50;;;;;;;4.83;2.70;;;;;;;;;;5103956;28;20241;-84
2022/09/28 21:12:19;;;;;;;2.87;2.50;;;;;;;;;;5097043;28;20206;-83
2022/09/28 21:14:47;;;;;;;4.17;2.67;;;;;;;;;;5095223;28;20234;-84
2022/09/28 21:17:16;;;;;;;5.17;2.80;;;;;;;;;;5094971;28;20221;-84
2022/09/28 21:19:45;;;;;;;3.33;2.60;;;;;;;;;;5094400;28;20286;-84
2022/09/28 21:22:13;;;;;;;4.47;2.60;;;;;;;;;;5094788;28;20203;-83
2022/09/28 21:24:43;;;;;;;5.90;2.93;;;;;;;;;;5094189;28;20222;-83
2022/09/28 21:27:11;;;;;;;3.87;3.00;;;;;;;;;;5095471;28;20294;-82
2022/09/28 21:29:39;;;;;;;3.13;2.30;;;;;;;;;;5096716;28;20253;-82
2022/09/28 21:32:08;;;;;;;2.97;2.40;;;;;;;;;;5104418;28;20219;-83
2022/09/28 21:34:36;;;;;;;3.27;2.57;;;;;;;;;;5094267;28;20207;-83
2022/09/28 21:37:05;;;;;;;6.00;2.90;;;;;;;;;;5098192;28;20203;-83
2022/09/28 21:39:33;;;;;;;5.33;2.50;;;;;;;;;;5094952;28;20210;-84
2022/09/28 21:42:03;;;;;;;3.47;2.43;;;;;;;;;;5093639;28;20211;-84
2022/09/28 21:44:31;;;;;;;4.00;2.53;;;;;;;;;;5096525;28;20207;-83
2022/09/28 21:47:00;;;;;;;3.40;2.40;;;;;;;;;;5114508;28;20212;-84
2022/09/28 21:49:29;;;;;;;3.40;2.23;;;;;;;;;;5111635;28;20233;-84
2022/09/28 21:51:58;;;;;;;3.70;2.60;;;;;;;;;;5093409;28;20210;-83
2022/09/28 21:54:27;;;;;;;3.57;2.77;;;;;;;;;;5094082;28;20583;-83
2022/09/28 21:56:56;;;;;;;2.73;2.30;;;;;;;;;;5093356;28;20712;-83
2022/09/28 21:59:26;;;;;;;3.93;2.70;;;;;;;;;;5093480;28;20207;-82
2022/09/28 22:01:56;;;;;;;4.67;2.90;;;;;;;;;;5093795;28;20668;-83
2022/09/28 22:04:25;;;;;;;4.70;2.60;;;;;;;;;;5092410;28;20297;-83
2022/09/28 22:06:53;;;;;;;4.43;2.60;;;;;;;;;;5091541;28;20214;-82
2022/09/28 22:09:21;;;;;;;6.00;3.20;;;;;;;;;;5091757;28;20234;-84
2022/09/28 22:11:50;;;;;;;5.60;3.20;;;;;;;;;;5091895;28;20916;-83
2022/09/28 22:14:18;;;;;;;5.23;3.30;;;;;;;;;;5091948;28;20257;-83
2022/09/28 22:16:48;;;;;;;4.73;3.10;;;;;;;;;;5093090;28;20303;-84
2022/09/28 22:19:16;;;;;;;5.70;3.07;;;;;;;;;;5093618;28;20211;-84
2022/09/28 22:21:45;;;;;;;4.33;2.63;;;;;;;;;;5092905;28;20243;-83
2022/09/28 22:24:14;;;;;;;3.33;2.33;;;;;;;;;;5092990;28;20219;-84
2022/09/28 22:26:42;;;;;;;4.33;2.30;;;;;;;;;;5093069;28;20277;-83
2022/09/28 22:29:11;;;;;;;4.97;2.13;;;;;;;;;;5092797;28;20223;-83
2022/09/28 22:31:40;;;;;;;1.90;1.80;;;;;;;;;;5093249;28;20297;-84
2022/09/28 22:34:10;;;;;;;2.93;1.80;;;;;;;;;;5092794;28;20234;-84
2022/09/28 22:36:39;;;;;;;4.47;2.00;;;;;;;;;;5093023;28;20203;-83
2022/09/28 22:39:07;;;;;;;3.03;2.10;;;;;;;;;;5092920;28;20233;-83
2022/09/28 22:41:36;;;;;;;5.33;2.20;;;;;;;;;;5104943;28;20667;-84
2022/09/28 22:44:04;;;;;;;1.73;1.50;;;;;;;;;;5092750;28;20676;-83
2022/09/28 22:46:33;;;;;;;4.17;1.90;;;;;;;;;;5092868;28;20207;-84
2022/09/28 22:49:02;;;;;;;2.87;1.80;;;;;;;;;;5092088;28;20706;-83
2022/09/28 22:51:31;;;;;;;4.23;1.70;;;;;;;;;;5092459;28;20664;-84
2022/09/28 22:54:00;;;;;;;4.37;1.70;;;;;;;;;;5092886;28;20203;-83
2022/09/28 22:56:28;;;;;;;2.00;1.60;;;;;;;;;;5092584;28;20210;-83
2022/09/28 22:58:57;;;;;;;3.27;1.70;;;;;;;;;;5092556;28;20214;-83
2022/09/28 23:01:27;;;;;;;3.00;1.87;;;;;;;;;;5091918;28;20203;-84
2022/09/28 23:03:56;;;;;;;3.37;1.70;;;;;;;;;;5092501;28;20210;-83
2022/09/28 23:06:25;;;;;;;2.17;1.80;;;;;;;;;;5092219;28;20211;-83
2022/09/28 23:08:55;;;;;;;4.90;1.80;;;;;;;;;;5092235;28;20234;-82
2022/09/28 23:11:24;;;;;;;4.13;1.80;;;;;;;;;;5091992;28;20723;-85
2022/09/28 23:13:52;;;;;;;4.43;1.63;;;;;;;;;;5092218;28;20578;-84
2022/09/28 23:16:22;;;;;;;5.03;1.53;;;;;;;;;;5092344;28;20560;-83
2022/09/28 23:18:51;;;;;;;3.93;1.60;;;;;;;;;;5091623;28;20297;-84
2022/09/28 23:21:20;;;;;;;3.10;1.60;;;;;;;;;;5092352;28;20202;-85
2022/09/28 23:23:52;;;;;;;2.27;1.50;;;;;;;;;;5092019;28;20211;-83
2022/09/28 23:26:23;;;;;;;2.97;1.77;;;;;;;;;;5101646;28;20199;-84
2022/09/28 23:28:54;;;;;;;4.60;1.60;;;;;;;;;;5096874;28;20572;-83
2022/09/28 23:31:23;;;;;;;2.10;1.60;;;;;;;;;;5091573;28;20207;-86
2022/09/28 23:33:57;;;;;;;1.67;1.57;;;;;;;;;;5100812;28;20217;-83
2022/09/28 23:36:25;;;;;;;2.73;1.80;;;;;;;;;;5112855;28;20192;-83
2022/09/28 23:38:54;;;;;;;3.60;2.00;;;;;;;;;;5097664;28;20219;-85
2022/09/28 23:41:24;;;;;;;4.17;2.00;;;;;;;;;;5092228;28;20305;-83
2022/09/28 23:43:52;;;;;;;3.03;2.10;;;;;;;;;;5091910;28;20656;-84
2022/09/28 23:46:21;;;;;;;2.90;1.80;;;;;;;;;;5092386;28;20214;-83
2022/09/28 23:48:49;;;;;;;2.50;2.10;;;;;;;;;;5091227;28;20261;-84
2022/09/28 23:51:18;;;;;;;2.53;1.80;;;;;;;;;;5092100;28;20191;-84
2022/09/28 23:53:47;;;;;;;3.63;2.03;;;;;;;;;;5092038;28;20207;-84
2022/09/28 23:56:15;;;;;;;4.17;1.93;;;;;;;;;;5091842;28;20210;-85
2022/09/28 23:58:45;;;;;;;1.97;1.70;;;;;;;;;;5091705;28;20207;-83
